Flugplatz Leuzendorf Segelflug (UL)

Hier findest Du alle Informationen zum Flugplatz Leuzendorf Segelflug (UL).

Informationen für Piloten zum Flugplatz Leuzendorf Segelflug

Hier findest Du alle relevanten Informationen, die Du als Pilot benötigst, um Leuzendorf Segelflug anzufliegen.

Flugplatz: Leuzendorf Segelflug ICAO-Code: UL Flugplatz
Frequenz Turm: 123.500 Mhz GAFOR Gebiet: 55
Frequenz Ground: 123.350 Mhz Mogas: nein
Platzrunde: S 2000 ft Landegebühr: -
Platzhöhe: Sunrise: 07:04 Uhr UTC
Pisten: 08/26 - 870 m x 25 m, GRAS Sunset: 15:55 Uhr UTC

Flugwetter am Flugplatz Leuzendorf Segelflug

Die METAR Information stammen aus EDDN (74.18 km entfernt).

METAR Code:
2020/01/04 18:50
EDDN 041850Z 26013KT 9999 -RA FEW013 BKN018 04/01 Q1028 NOSIG

Flugschulen am Flugplatz Leuzendorf Segelflug

Am Flugplatz Leuzendorf Segelflug gibt es leider keine Flugschule.

Benachbarte Flugplätze und Flugschulen

Es gibt 24 weitere Flugplätze in einem Umkreis von 50 km um den Flugplatz Leuzendorf Segelflug.

Jetzt anmelden

Passwort vergessen

Umfrage Archiv

Lasst Ihr Euch bei Überlandflügen von FIS begleiten?

Ja, immer!
43.4 %
Ja, unregelmäßig!
28.7 %
Ja, aber nur selten!
18.9 %
Nein, nie!
9.1 %
Stimmen: 143 | Diskussion
Anzeige: Roland Aircraft
Statistik Alle Mitglieder

Aktuell sind 23 Besucher online, davon 3 Mitglieder und 20 Gäste.


Mitglieder online:
DanielRbg  Dirk CT  hotelromeo 

Anzeige: VFR Sprechfunk Simulator


Anzeige: Pocket FMS